<?xml version="1.0" encoding="UTF-8" standalone="no" ?>
<gpx xmlns="http://www.topografix.com/GPX/1/1" xmlns:xsi="http://www.w3.org/2001/XMLSchema-instance" xsi:schemaLocation="http://www.topografix.com/GPX/1/1 http://www.topografix.com/GPX/1/1/gpx.xsd" version="1.1" creator="VisuGPX - https://www.visugpx.com">
  <metadata>
    <name>1ere sortie VTT Arnaud &amp; Chris</name>
    <desc><![CDATA[test du VTT de compet]]></desc>
  </metadata>
  <trk>
    <name><![CDATA[vtt1]]></name>
    <trkseg>
      <trkpt lat="44.30268" lon="4.61642">
        <ele>128</ele>
        <time>2013-06-23T14:17:45Z</time>
      </trkpt>
      <trkpt lat="44.30271" lon="4.61639">
        <ele>124</ele>
        <time>2013-06-23T14:17:50Z</time>
      </trkpt>
      <trkpt lat="44.30269" lon="4.61639">
        <ele>124</ele>
        <time>2013-06-23T14:17:57Z</time>
      </trkpt>
      <trkpt lat="44.30271" lon="4.61643">
        <ele>125</ele>
        <time>2013-06-23T14:18:04Z</time>
      </trkpt>
      <trkpt lat="44.30272" lon="4.61643">
        <ele>125</ele>
        <time>2013-06-23T14:18:09Z</time>
      </trkpt>
      <trkpt lat="44.30272" lon="4.61644">
        <ele>126</ele>
        <time>2013-06-23T14:18:14Z</time>
      </trkpt>
      <trkpt lat="44.30264" lon="4.61663">
        <ele>127</ele>
        <time>2013-06-23T14:18:21Z</time>
      </trkpt>
      <trkpt lat="44.30247" lon="4.6174">
        <ele>131</ele>
        <time>2013-06-23T14:18:38Z</time>
      </trkpt>
      <trkpt lat="44.3025" lon="4.61763">
        <ele>133</ele>
        <time>2013-06-23T14:18:45Z</time>
      </trkpt>
      <trkpt lat="44.30259" lon="4.6177">
        <ele>134</ele>
        <time>2013-06-23T14:18:50Z</time>
      </trkpt>
      <trkpt lat="44.30266" lon="4.61805">
        <ele>138</ele>
        <time>2013-06-23T14:18:56Z</time>
      </trkpt>
      <trkpt lat="44.30261" lon="4.6187">
        <ele>136</ele>
        <time>2013-06-23T14:19:08Z</time>
      </trkpt>
      <trkpt lat="44.3021" lon="4.62118">
        <ele>134</ele>
        <time>2013-06-23T14:20:01Z</time>
      </trkpt>
      <trkpt lat="44.30197" lon="4.62165">
        <ele>132</ele>
        <time>2013-06-23T14:20:09Z</time>
      </trkpt>
      <trkpt lat="44.30107" lon="4.62493">
        <ele>128</ele>
        <time>2013-06-23T14:20:51Z</time>
      </trkpt>
      <trkpt lat="44.30106" lon="4.62537">
        <ele>126</ele>
        <time>2013-06-23T14:20:56Z</time>
      </trkpt>
      <trkpt lat="44.30107" lon="4.6259">
        <ele>124</ele>
        <time>2013-06-23T14:21:02Z</time>
      </trkpt>
      <trkpt lat="44.30101" lon="4.6264">
        <ele>124</ele>
        <time>2013-06-23T14:21:08Z</time>
      </trkpt>
      <trkpt lat="44.29966" lon="4.63296">
        <ele>122</ele>
        <time>2013-06-23T14:22:37Z</time>
      </trkpt>
      <trkpt lat="44.2996" lon="4.63335">
        <ele>125</ele>
        <time>2013-06-23T14:22:43Z</time>
      </trkpt>
      <trkpt lat="44.29952" lon="4.63411">
        <ele>124</ele>
        <time>2013-06-23T14:22:53Z</time>
      </trkpt>
      <trkpt lat="44.29953" lon="4.6345">
        <ele>123</ele>
        <time>2013-06-23T14:22:58Z</time>
      </trkpt>
      <trkpt lat="44.29981" lon="4.63657">
        <ele>118</ele>
        <time>2013-06-23T14:23:23Z</time>
      </trkpt>
      <trkpt lat="44.29998" lon="4.63869">
        <ele>117</ele>
        <time>2013-06-23T14:23:50Z</time>
      </trkpt>
      <trkpt lat="44.30088" lon="4.63909">
        <ele>116</ele>
        <time>2013-06-23T14:24:09Z</time>
      </trkpt>
      <trkpt lat="44.30082" lon="4.63948">
        <ele>115</ele>
        <time>2013-06-23T14:24:16Z</time>
      </trkpt>
      <trkpt lat="44.30059" lon="4.63968">
        <ele>116</ele>
        <time>2013-06-23T14:24:22Z</time>
      </trkpt>
      <trkpt lat="44.30048" lon="4.64004">
        <ele>116</ele>
        <time>2013-06-23T14:24:28Z</time>
      </trkpt>
      <trkpt lat="44.30048" lon="4.64067">
        <ele>117</ele>
        <time>2013-06-23T14:24:38Z</time>
      </trkpt>
      <trkpt lat="44.30055" lon="4.64175">
        <ele>116</ele>
        <time>2013-06-23T14:24:57Z</time>
      </trkpt>
      <trkpt lat="44.30097" lon="4.64182">
        <ele>117</ele>
        <time>2013-06-23T14:25:11Z</time>
      </trkpt>
      <trkpt lat="44.30126" lon="4.6418">
        <ele>117</ele>
        <time>2013-06-23T14:25:18Z</time>
      </trkpt>
      <trkpt lat="44.3071" lon="4.64183">
        <ele>120</ele>
        <time>2013-06-23T14:27:45Z</time>
      </trkpt>
      <trkpt lat="44.30729" lon="4.64183">
        <ele>120</ele>
        <time>2013-06-23T14:27:50Z</time>
      </trkpt>
      <trkpt lat="44.30752" lon="4.64181">
        <ele>120</ele>
        <time>2013-06-23T14:27:58Z</time>
      </trkpt>
      <trkpt lat="44.30757" lon="4.64188">
        <ele>120</ele>
        <time>2013-06-23T14:28:03Z</time>
      </trkpt>
      <trkpt lat="44.30764" lon="4.64214">
        <ele>121</ele>
        <time>2013-06-23T14:28:09Z</time>
      </trkpt>
      <trkpt lat="44.3077" lon="4.64237">
        <ele>122</ele>
        <time>2013-06-23T14:28:14Z</time>
      </trkpt>
      <trkpt lat="44.30805" lon="4.64326">
        <ele>121</ele>
        <time>2013-06-23T14:28:33Z</time>
      </trkpt>
      <trkpt lat="44.30807" lon="4.64356">
        <ele>120</ele>
        <time>2013-06-23T14:28:38Z</time>
      </trkpt>
      <trkpt lat="44.30806" lon="4.64388">
        <ele>120</ele>
        <time>2013-06-23T14:28:43Z</time>
      </trkpt>
      <trkpt lat="44.30811" lon="4.64461">
        <ele>120</ele>
        <time>2013-06-23T14:28:56Z</time>
      </trkpt>
      <trkpt lat="44.30811" lon="4.64494">
        <ele>119</ele>
        <time>2013-06-23T14:29:02Z</time>
      </trkpt>
      <trkpt lat="44.30809" lon="4.6455">
        <ele>119</ele>
        <time>2013-06-23T14:29:13Z</time>
      </trkpt>
      <trkpt lat="44.30808" lon="4.64589">
        <ele>118</ele>
        <time>2013-06-23T14:29:24Z</time>
      </trkpt>
      <trkpt lat="44.30614" lon="4.64553">
        <ele>116</ele>
        <time>2013-06-23T14:30:22Z</time>
      </trkpt>
      <trkpt lat="44.3059" lon="4.64548">
        <ele>116</ele>
        <time>2013-06-23T14:30:29Z</time>
      </trkpt>
      <trkpt lat="44.30473" lon="4.6452">
        <ele>118</ele>
        <time>2013-06-23T14:31:04Z</time>
      </trkpt>
      <trkpt lat="44.30462" lon="4.6452">
        <ele>119</ele>
        <time>2013-06-23T14:31:10Z</time>
      </trkpt>
      <trkpt lat="44.30463" lon="4.64573">
        <ele>119</ele>
        <time>2013-06-23T14:31:21Z</time>
      </trkpt>
      <trkpt lat="44.30465" lon="4.64632">
        <ele>121</ele>
        <time>2013-06-23T14:31:32Z</time>
      </trkpt>
      <trkpt lat="44.30472" lon="4.64741">
        <ele>119</ele>
        <time>2013-06-23T14:31:52Z</time>
      </trkpt>
      <trkpt lat="44.3048" lon="4.64748">
        <ele>119</ele>
        <time>2013-06-23T14:31:57Z</time>
      </trkpt>
      <trkpt lat="44.30515" lon="4.64752">
        <ele>119</ele>
        <time>2013-06-23T14:32:10Z</time>
      </trkpt>
      <trkpt lat="44.30665" lon="4.64783">
        <ele>125</ele>
        <time>2013-06-23T14:32:56Z</time>
      </trkpt>
      <trkpt lat="44.30697" lon="4.64789">
        <ele>124</ele>
        <time>2013-06-23T14:33:05Z</time>
      </trkpt>
      <trkpt lat="44.30733" lon="4.64796">
        <ele>125</ele>
        <time>2013-06-23T14:33:16Z</time>
      </trkpt>
      <trkpt lat="44.30805" lon="4.64782">
        <ele>125</ele>
        <time>2013-06-23T14:33:37Z</time>
      </trkpt>
      <trkpt lat="44.30904" lon="4.64757">
        <ele>123</ele>
        <time>2013-06-23T14:34:04Z</time>
      </trkpt>
      <trkpt lat="44.30935" lon="4.64699">
        <ele>123</ele>
        <time>2013-06-23T14:34:21Z</time>
      </trkpt>
      <trkpt lat="44.30944" lon="4.64654">
        <ele>122</ele>
        <time>2013-06-23T14:34:32Z</time>
      </trkpt>
      <trkpt lat="44.30892" lon="4.64618">
        <ele>123</ele>
        <time>2013-06-23T14:34:55Z</time>
      </trkpt>
      <trkpt lat="44.30861" lon="4.64608">
        <ele>122</ele>
        <time>2013-06-23T14:35:08Z</time>
      </trkpt>
      <trkpt lat="44.30852" lon="4.64604">
        <ele>123</ele>
        <time>2013-06-23T14:35:14Z</time>
      </trkpt>
      <trkpt lat="44.3084" lon="4.64543">
        <ele>121</ele>
        <time>2013-06-23T14:35:32Z</time>
      </trkpt>
      <trkpt lat="44.30842" lon="4.64522">
        <ele>120</ele>
        <time>2013-06-23T14:35:38Z</time>
      </trkpt>
      <trkpt lat="44.30847" lon="4.64482">
        <ele>119</ele>
        <time>2013-06-23T14:35:45Z</time>
      </trkpt>
      <trkpt lat="44.30852" lon="4.64469">
        <ele>119</ele>
        <time>2013-06-23T14:35:51Z</time>
      </trkpt>
      <trkpt lat="44.30865" lon="4.64475">
        <ele>119</ele>
        <time>2013-06-23T14:35:57Z</time>
      </trkpt>
      <trkpt lat="44.30872" lon="4.6448">
        <ele>120</ele>
        <time>2013-06-23T14:36:02Z</time>
      </trkpt>
      <trkpt lat="44.3088" lon="4.64485">
        <ele>119</ele>
        <time>2013-06-23T14:36:09Z</time>
      </trkpt>
      <trkpt lat="44.30882" lon="4.64486">
        <ele>117</ele>
        <time>2013-06-23T14:36:16Z</time>
      </trkpt>
      <trkpt lat="44.30883" lon="4.64486">
        <ele>117</ele>
        <time>2013-06-23T14:36:24Z</time>
      </trkpt>
      <trkpt lat="44.30875" lon="4.64482">
        <ele>118</ele>
        <time>2013-06-23T14:36:32Z</time>
      </trkpt>
      <trkpt lat="44.30865" lon="4.64479">
        <ele>119</ele>
        <time>2013-06-23T14:36:38Z</time>
      </trkpt>
      <trkpt lat="44.30857" lon="4.64483">
        <ele>120</ele>
        <time>2013-06-23T14:36:43Z</time>
      </trkpt>
      <trkpt lat="44.30852" lon="4.64491">
        <ele>120</ele>
        <time>2013-06-23T14:36:49Z</time>
      </trkpt>
      <trkpt lat="44.30849" lon="4.64505">
        <ele>121</ele>
        <time>2013-06-23T14:36:54Z</time>
      </trkpt>
      <trkpt lat="44.30844" lon="4.64527">
        <ele>124</ele>
        <time>2013-06-23T14:37:02Z</time>
      </trkpt>
      <trkpt lat="44.30841" lon="4.64534">
        <ele>123</ele>
        <time>2013-06-23T14:37:09Z</time>
      </trkpt>
      <trkpt lat="44.30839" lon="4.64528">
        <ele>121</ele>
        <time>2013-06-23T14:37:14Z</time>
      </trkpt>
      <trkpt lat="44.30838" lon="4.64501">
        <ele>120</ele>
        <time>2013-06-23T14:37:22Z</time>
      </trkpt>
      <trkpt lat="44.30839" lon="4.64465">
        <ele>120</ele>
        <time>2013-06-23T14:37:30Z</time>
      </trkpt>
      <trkpt lat="44.30839" lon="4.64442">
        <ele>120</ele>
        <time>2013-06-23T14:37:36Z</time>
      </trkpt>
      <trkpt lat="44.30837" lon="4.64439">
        <ele>121</ele>
        <time>2013-06-23T14:37:41Z</time>
      </trkpt>
      <trkpt lat="44.3083" lon="4.64441">
        <ele>121</ele>
        <time>2013-06-23T14:37:46Z</time>
      </trkpt>
      <trkpt lat="44.30814" lon="4.6443">
        <ele>121</ele>
        <time>2013-06-23T14:37:52Z</time>
      </trkpt>
      <trkpt lat="44.30808" lon="4.64405">
        <ele>119</ele>
        <time>2013-06-23T14:37:57Z</time>
      </trkpt>
      <trkpt lat="44.30808" lon="4.64377">
        <ele>119</ele>
        <time>2013-06-23T14:38:04Z</time>
      </trkpt>
      <trkpt lat="44.30808" lon="4.64353">
        <ele>118</ele>
        <time>2013-06-23T14:38:09Z</time>
      </trkpt>
      <trkpt lat="44.30773" lon="4.64251">
        <ele>120</ele>
        <time>2013-06-23T14:38:33Z</time>
      </trkpt>
      <trkpt lat="44.30761" lon="4.64195">
        <ele>119</ele>
        <time>2013-06-23T14:38:43Z</time>
      </trkpt>
      <trkpt lat="44.30747" lon="4.64119">
        <ele>118</ele>
        <time>2013-06-23T14:38:58Z</time>
      </trkpt>
      <trkpt lat="44.30744" lon="4.64057">
        <ele>117</ele>
        <time>2013-06-23T14:39:10Z</time>
      </trkpt>
      <trkpt lat="44.3076" lon="4.63974">
        <ele>117</ele>
        <time>2013-06-23T14:39:25Z</time>
      </trkpt>
      <trkpt lat="44.30793" lon="4.63957">
        <ele>115</ele>
        <time>2013-06-23T14:39:33Z</time>
      </trkpt>
      <trkpt lat="44.30858" lon="4.63949">
        <ele>117</ele>
        <time>2013-06-23T14:39:50Z</time>
      </trkpt>
      <trkpt lat="44.30873" lon="4.63933">
        <ele>117</ele>
        <time>2013-06-23T14:39:55Z</time>
      </trkpt>
      <trkpt lat="44.30924" lon="4.63832">
        <ele>118</ele>
        <time>2013-06-23T14:40:20Z</time>
      </trkpt>
      <trkpt lat="44.30926" lon="4.63833">
        <ele>118</ele>
        <time>2013-06-23T14:40:29Z</time>
      </trkpt>
      <trkpt lat="44.30926" lon="4.63833">
        <ele>118</ele>
        <time>2013-06-23T14:40:36Z</time>
      </trkpt>
      <trkpt lat="44.30932" lon="4.63823">
        <ele>118</ele>
        <time>2013-06-23T14:40:43Z</time>
      </trkpt>
      <trkpt lat="44.30936" lon="4.63816">
        <ele>118</ele>
        <time>2013-06-23T14:40:49Z</time>
      </trkpt>
      <trkpt lat="44.30936" lon="4.63811">
        <ele>118</ele>
        <time>2013-06-23T14:40:56Z</time>
      </trkpt>
      <trkpt lat="44.30936" lon="4.6381">
        <ele>118</ele>
        <time>2013-06-23T14:41:02Z</time>
      </trkpt>
      <trkpt lat="44.30935" lon="4.63809">
        <ele>118</ele>
        <time>2013-06-23T14:41:08Z</time>
      </trkpt>
      <trkpt lat="44.30935" lon="4.63808">
        <ele>119</ele>
        <time>2013-06-23T14:41:15Z</time>
      </trkpt>
      <trkpt lat="44.30935" lon="4.63812">
        <ele>119</ele>
        <time>2013-06-23T14:41:20Z</time>
      </trkpt>
      <trkpt lat="44.30934" lon="4.63811">
        <ele>119</ele>
        <time>2013-06-23T14:41:25Z</time>
      </trkpt>
      <trkpt lat="44.30933" lon="4.6381">
        <ele>119</ele>
        <time>2013-06-23T14:41:31Z</time>
      </trkpt>
      <trkpt lat="44.30933" lon="4.63811">
        <ele>119</ele>
        <time>2013-06-23T14:41:37Z</time>
      </trkpt>
      <trkpt lat="44.30932" lon="4.63813">
        <ele>119</ele>
        <time>2013-06-23T14:41:45Z</time>
      </trkpt>
      <trkpt lat="44.30929" lon="4.63817">
        <ele>119</ele>
        <time>2013-06-23T14:41:52Z</time>
      </trkpt>
      <trkpt lat="44.30929" lon="4.63817">
        <ele>120</ele>
        <time>2013-06-23T14:41:58Z</time>
      </trkpt>
      <trkpt lat="44.30932" lon="4.63816">
        <ele>120</ele>
        <time>2013-06-23T14:42:05Z</time>
      </trkpt>
      <trkpt lat="44.30933" lon="4.63812">
        <ele>121</ele>
        <time>2013-06-23T14:42:10Z</time>
      </trkpt>
      <trkpt lat="44.30939" lon="4.63803">
        <ele>120</ele>
        <time>2013-06-23T14:42:15Z</time>
      </trkpt>
      <trkpt lat="44.30948" lon="4.63791">
        <ele>118</ele>
        <time>2013-06-23T14:42:20Z</time>
      </trkpt>
      <trkpt lat="44.3096" lon="4.63787">
        <ele>117</ele>
        <time>2013-06-23T14:42:25Z</time>
      </trkpt>
      <trkpt lat="44.30995" lon="4.63779">
        <ele>118</ele>
        <time>2013-06-23T14:42:33Z</time>
      </trkpt>
      <trkpt lat="44.31008" lon="4.63765">
        <ele>116</ele>
        <time>2013-06-23T14:42:38Z</time>
      </trkpt>
      <trkpt lat="44.31019" lon="4.63746">
        <ele>115</ele>
        <time>2013-06-23T14:42:44Z</time>
      </trkpt>
      <trkpt lat="44.31037" lon="4.63729">
        <ele>114</ele>
        <time>2013-06-23T14:42:50Z</time>
      </trkpt>
      <trkpt lat="44.31056" lon="4.63719">
        <ele>114</ele>
        <time>2013-06-23T14:42:56Z</time>
      </trkpt>
      <trkpt lat="44.31071" lon="4.63715">
        <ele>112</ele>
        <time>2013-06-23T14:43:01Z</time>
      </trkpt>
      <trkpt lat="44.31099" lon="4.63714">
        <ele>108</ele>
        <time>2013-06-23T14:43:07Z</time>
      </trkpt>
      <trkpt lat="44.31132" lon="4.63706">
        <ele>107</ele>
        <time>2013-06-23T14:43:13Z</time>
      </trkpt>
      <trkpt lat="44.31232" lon="4.63619">
        <ele>101</ele>
        <time>2013-06-23T14:43:38Z</time>
      </trkpt>
      <trkpt lat="44.31254" lon="4.63612">
        <ele>101</ele>
        <time>2013-06-23T14:43:45Z</time>
      </trkpt>
      <trkpt lat="44.31229" lon="4.6374">
        <ele>104</ele>
        <time>2013-06-23T14:44:06Z</time>
      </trkpt>
      <trkpt lat="44.31155" lon="4.64044">
        <ele>101</ele>
        <time>2013-06-23T14:44:52Z</time>
      </trkpt>
      <trkpt lat="44.31161" lon="4.64048">
        <ele>101</ele>
        <time>2013-06-23T14:44:57Z</time>
      </trkpt>
      <trkpt lat="44.31182" lon="4.64043">
        <ele>100</ele>
        <time>2013-06-23T14:45:04Z</time>
      </trkpt>
      <trkpt lat="44.31304" lon="4.63991">
        <ele>99</ele>
        <time>2013-06-23T14:45:39Z</time>
      </trkpt>
      <trkpt lat="44.31328" lon="4.63982">
        <ele>100</ele>
        <time>2013-06-23T14:45:46Z</time>
      </trkpt>
      <trkpt lat="44.31365" lon="4.63972">
        <ele>100</ele>
        <time>2013-06-23T14:45:57Z</time>
      </trkpt>
      <trkpt lat="44.31406" lon="4.63972">
        <ele>101</ele>
        <time>2013-06-23T14:46:10Z</time>
      </trkpt>
      <trkpt lat="44.31452" lon="4.63976">
        <ele>100</ele>
        <time>2013-06-23T14:46:22Z</time>
      </trkpt>
      <trkpt lat="44.31475" lon="4.63976">
        <ele>100</ele>
        <time>2013-06-23T14:46:29Z</time>
      </trkpt>
      <trkpt lat="44.31512" lon="4.6398">
        <ele>101</ele>
        <time>2013-06-23T14:46:40Z</time>
      </trkpt>
      <trkpt lat="44.31536" lon="4.6398">
        <ele>101</ele>
        <time>2013-06-23T14:46:47Z</time>
      </trkpt>
      <trkpt lat="44.31576" lon="4.63973">
        <ele>100</ele>
        <time>2013-06-23T14:46:58Z</time>
      </trkpt>
      <trkpt lat="44.31598" lon="4.63973">
        <ele>100</ele>
        <time>2013-06-23T14:47:04Z</time>
      </trkpt>
      <trkpt lat="44.31619" lon="4.63975">
        <ele>101</ele>
        <time>2013-06-23T14:47:10Z</time>
      </trkpt>
      <trkpt lat="44.31683" lon="4.64006">
        <ele>101</ele>
        <time>2013-06-23T14:47:29Z</time>
      </trkpt>
      <trkpt lat="44.317" lon="4.6401">
        <ele>103</ele>
        <time>2013-06-23T14:47:35Z</time>
      </trkpt>
      <trkpt lat="44.31768" lon="4.63845">
        <ele>103</ele>
        <time>2013-06-23T14:48:17Z</time>
      </trkpt>
      <trkpt lat="44.31775" lon="4.63825">
        <ele>104</ele>
        <time>2013-06-23T14:48:22Z</time>
      </trkpt>
      <trkpt lat="44.31799" lon="4.63754">
        <ele>103</ele>
        <time>2013-06-23T14:48:45Z</time>
      </trkpt>
      <trkpt lat="44.31863" lon="4.63824">
        <ele>112</ele>
        <time>2013-06-23T14:49:13Z</time>
      </trkpt>
      <trkpt lat="44.31883" lon="4.63832">
        <ele>113</ele>
        <time>2013-06-23T14:49:21Z</time>
      </trkpt>
      <trkpt lat="44.31894" lon="4.63851">
        <ele>115</ele>
        <time>2013-06-23T14:49:28Z</time>
      </trkpt>
      <trkpt lat="44.31903" lon="4.63866">
        <ele>116</ele>
        <time>2013-06-23T14:49:33Z</time>
      </trkpt>
      <trkpt lat="44.32111" lon="4.64054">
        <ele>106</ele>
        <time>2013-06-23T14:50:48Z</time>
      </trkpt>
      <trkpt lat="44.3212" lon="4.64061">
        <ele>107</ele>
        <time>2013-06-23T14:50:53Z</time>
      </trkpt>
      <trkpt lat="44.3217" lon="4.64135">
        <ele>109</ele>
        <time>2013-06-23T14:51:20Z</time>
      </trkpt>
      <trkpt lat="44.32179" lon="4.64147">
        <ele>109</ele>
        <time>2013-06-23T14:51:26Z</time>
      </trkpt>
      <trkpt lat="44.32171" lon="4.64155">
        <ele>108</ele>
        <time>2013-06-23T14:51:32Z</time>
      </trkpt>
      <trkpt lat="44.32145" lon="4.64169">
        <ele>106</ele>
        <time>2013-06-23T14:51:39Z</time>
      </trkpt>
      <trkpt lat="44.3208" lon="4.6425">
        <ele>106</ele>
        <time>2013-06-23T14:51:58Z</time>
      </trkpt>
      <trkpt lat="44.32038" lon="4.64289">
        <ele>105</ele>
        <time>2013-06-23T14:52:13Z</time>
      </trkpt>
      <trkpt lat="44.31931" lon="4.64602">
        <ele>101</ele>
        <time>2013-06-23T14:53:21Z</time>
      </trkpt>
      <trkpt lat="44.31919" lon="4.64642">
        <ele>100</ele>
        <time>2013-06-23T14:53:29Z</time>
      </trkpt>
      <trkpt lat="44.31911" lon="4.64676">
        <ele>101</ele>
        <time>2013-06-23T14:53:37Z</time>
      </trkpt>
      <trkpt lat="44.31918" lon="4.64698">
        <ele>104</ele>
        <time>2013-06-23T14:53:44Z</time>
      </trkpt>
      <trkpt lat="44.31961" lon="4.64706">
        <ele>104</ele>
        <time>2013-06-23T14:53:59Z</time>
      </trkpt>
      <trkpt lat="44.32031" lon="4.64732">
        <ele>102</ele>
        <time>2013-06-23T14:54:21Z</time>
      </trkpt>
      <trkpt lat="44.32046" lon="4.64736">
        <ele>102</ele>
        <time>2013-06-23T14:54:26Z</time>
      </trkpt>
      <trkpt lat="44.32064" lon="4.64735">
        <ele>101</ele>
        <time>2013-06-23T14:54:32Z</time>
      </trkpt>
      <trkpt lat="44.32101" lon="4.64739">
        <ele>103</ele>
        <time>2013-06-23T14:54:44Z</time>
      </trkpt>
      <trkpt lat="44.32133" lon="4.64748">
        <ele>103</ele>
        <time>2013-06-23T14:54:57Z</time>
      </trkpt>
      <trkpt lat="44.3222" lon="4.648">
        <ele>105</ele>
        <time>2013-06-23T14:55:32Z</time>
      </trkpt>
      <trkpt lat="44.32287" lon="4.64818">
        <ele>109</ele>
        <time>2013-06-23T14:55:52Z</time>
      </trkpt>
      <trkpt lat="44.32301" lon="4.64822">
        <ele>110</ele>
        <time>2013-06-23T14:55:57Z</time>
      </trkpt>
      <trkpt lat="44.32317" lon="4.64827">
        <ele>110</ele>
        <time>2013-06-23T14:56:03Z</time>
      </trkpt>
      <trkpt lat="44.32344" lon="4.64827">
        <ele>110</ele>
        <time>2013-06-23T14:56:12Z</time>
      </trkpt>
      <trkpt lat="44.32361" lon="4.6483">
        <ele>112</ele>
        <time>2013-06-23T14:56:18Z</time>
      </trkpt>
      <trkpt lat="44.324" lon="4.64838">
        <ele>113</ele>
        <time>2013-06-23T14:56:31Z</time>
      </trkpt>
      <trkpt lat="44.32463" lon="4.64878">
        <ele>111</ele>
        <time>2013-06-23T14:56:53Z</time>
      </trkpt>
      <trkpt lat="44.32475" lon="4.64884">
        <ele>110</ele>
        <time>2013-06-23T14:56:58Z</time>
      </trkpt>
      <trkpt lat="44.3248" lon="4.64877">
        <ele>108</ele>
        <time>2013-06-23T14:57:03Z</time>
      </trkpt>
      <trkpt lat="44.32568" lon="4.64563">
        <ele>99</ele>
        <time>2013-06-23T14:58:26Z</time>
      </trkpt>
      <trkpt lat="44.32554" lon="4.64554">
        <ele>101</ele>
        <time>2013-06-23T14:58:32Z</time>
      </trkpt>
      <trkpt lat="44.32513" lon="4.64528">
        <ele>102</ele>
        <time>2013-06-23T14:58:49Z</time>
      </trkpt>
      <trkpt lat="44.32496" lon="4.64504">
        <ele>100</ele>
        <time>2013-06-23T14:58:56Z</time>
      </trkpt>
      <trkpt lat="44.32513" lon="4.64478">
        <ele>102</ele>
        <time>2013-06-23T14:59:07Z</time>
      </trkpt>
      <trkpt lat="44.32567" lon="4.64455">
        <ele>108</ele>
        <time>2013-06-23T14:59:34Z</time>
      </trkpt>
      <trkpt lat="44.32574" lon="4.64438">
        <ele>108</ele>
        <time>2013-06-23T14:59:41Z</time>
      </trkpt>
      <trkpt lat="44.32627" lon="4.64205">
        <ele>116</ele>
        <time>2013-06-23T15:00:57Z</time>
      </trkpt>
      <trkpt lat="44.32636" lon="4.64165">
        <ele>116</ele>
        <time>2013-06-23T15:01:10Z</time>
      </trkpt>
      <trkpt lat="44.32652" lon="4.6411">
        <ele>118</ele>
        <time>2013-06-23T15:01:31Z</time>
      </trkpt>
      <trkpt lat="44.32654" lon="4.64094">
        <ele>120</ele>
        <time>2013-06-23T15:01:37Z</time>
      </trkpt>
      <trkpt lat="44.32654" lon="4.64074">
        <ele>120</ele>
        <time>2013-06-23T15:01:44Z</time>
      </trkpt>
      <trkpt lat="44.32651" lon="4.64059">
        <ele>121</ele>
        <time>2013-06-23T15:01:50Z</time>
      </trkpt>
      <trkpt lat="44.32578" lon="4.63893">
        <ele>123</ele>
        <time>2013-06-23T15:02:26Z</time>
      </trkpt>
      <trkpt lat="44.32545" lon="4.63715">
        <ele>131</ele>
        <time>2013-06-23T15:03:28Z</time>
      </trkpt>
      <trkpt lat="44.32528" lon="4.63701">
        <ele>131</ele>
        <time>2013-06-23T15:03:33Z</time>
      </trkpt>
      <trkpt lat="44.32509" lon="4.63685">
        <ele>131</ele>
        <time>2013-06-23T15:03:39Z</time>
      </trkpt>
      <trkpt lat="44.32499" lon="4.63677">
        <ele>132</ele>
        <time>2013-06-23T15:03:44Z</time>
      </trkpt>
      <trkpt lat="44.3249" lon="4.63675">
        <ele>133</ele>
        <time>2013-06-23T15:03:50Z</time>
      </trkpt>
      <trkpt lat="44.32491" lon="4.63675">
        <ele>133</ele>
        <time>2013-06-23T15:03:56Z</time>
      </trkpt>
      <trkpt lat="44.32491" lon="4.63674">
        <ele>132</ele>
        <time>2013-06-23T15:04:02Z</time>
      </trkpt>
      <trkpt lat="44.32491" lon="4.63675">
        <ele>132</ele>
        <time>2013-06-23T15:04:10Z</time>
      </trkpt>
      <trkpt lat="44.3249" lon="4.63677">
        <ele>133</ele>
        <time>2013-06-23T15:04:17Z</time>
      </trkpt>
      <trkpt lat="44.32489" lon="4.63677">
        <ele>133</ele>
        <time>2013-06-23T15:04:25Z</time>
      </trkpt>
      <trkpt lat="44.32487" lon="4.63676">
        <ele>131</ele>
        <time>2013-06-23T15:04:32Z</time>
      </trkpt>
      <trkpt lat="44.32488" lon="4.63673">
        <ele>130</ele>
        <time>2013-06-23T15:04:41Z</time>
      </trkpt>
      <trkpt lat="44.32488" lon="4.63673">
        <ele>131</ele>
        <time>2013-06-23T15:04:49Z</time>
      </trkpt>
      <trkpt lat="44.32487" lon="4.63672">
        <ele>130</ele>
        <time>2013-06-23T15:04:55Z</time>
      </trkpt>
      <trkpt lat="44.32486" lon="4.63674">
        <ele>131</ele>
        <time>2013-06-23T15:05:03Z</time>
      </trkpt>
      <trkpt lat="44.32487" lon="4.63674">
        <ele>131</ele>
        <time>2013-06-23T15:05:08Z</time>
      </trkpt>
      <trkpt lat="44.32487" lon="4.63675">
        <ele>131</ele>
        <time>2013-06-23T15:05:19Z</time>
      </trkpt>
      <trkpt lat="44.32487" lon="4.63674">
        <ele>131</ele>
        <time>2013-06-23T15:05:25Z</time>
      </trkpt>
      <trkpt lat="44.32489" lon="4.63672">
        <ele>131</ele>
        <time>2013-06-23T15:05:33Z</time>
      </trkpt>
      <trkpt lat="44.32487" lon="4.63671">
        <ele>131</ele>
        <time>2013-06-23T15:05:38Z</time>
      </trkpt>
      <trkpt lat="44.32487" lon="4.63671">
        <ele>131</ele>
        <time>2013-06-23T15:05:43Z</time>
      </trkpt>
      <trkpt lat="44.32487" lon="4.63674">
        <ele>132</ele>
        <time>2013-06-23T15:05:49Z</time>
      </trkpt>
      <trkpt lat="44.32486" lon="4.63679">
        <ele>133</ele>
        <time>2013-06-23T15:05:54Z</time>
      </trkpt>
      <trkpt lat="44.32487" lon="4.63677">
        <ele>134</ele>
        <time>2013-06-23T15:06:02Z</time>
      </trkpt>
      <trkpt lat="44.32488" lon="4.63676">
        <ele>133</ele>
        <time>2013-06-23T15:06:09Z</time>
      </trkpt>
      <trkpt lat="44.32487" lon="4.63674">
        <ele>133</ele>
        <time>2013-06-23T15:06:15Z</time>
      </trkpt>
      <trkpt lat="44.32488" lon="4.63673">
        <ele>133</ele>
        <time>2013-06-23T15:06:21Z</time>
      </trkpt>
      <trkpt lat="44.32486" lon="4.63674">
        <ele>133</ele>
        <time>2013-06-23T15:06:26Z</time>
      </trkpt>
      <trkpt lat="44.32487" lon="4.63673">
        <ele>133</ele>
        <time>2013-06-23T15:06:36Z</time>
      </trkpt>
      <trkpt lat="44.32487" lon="4.63675">
        <ele>133</ele>
        <time>2013-06-23T15:06:41Z</time>
      </trkpt>
      <trkpt lat="44.32485" lon="4.63678">
        <ele>132</ele>
        <time>2013-06-23T15:06:48Z</time>
      </trkpt>
      <trkpt lat="44.32491" lon="4.63677">
        <ele>132</ele>
        <time>2013-06-23T15:06:54Z</time>
      </trkpt>
      <trkpt lat="44.32496" lon="4.6367">
        <ele>133</ele>
        <time>2013-06-23T15:06:59Z</time>
      </trkpt>
      <trkpt lat="44.32504" lon="4.63646">
        <ele>134</ele>
        <time>2013-06-23T15:07:09Z</time>
      </trkpt>
      <trkpt lat="44.32506" lon="4.63631">
        <ele>134</ele>
        <time>2013-06-23T15:07:15Z</time>
      </trkpt>
      <trkpt lat="44.32507" lon="4.63618">
        <ele>134</ele>
        <time>2013-06-23T15:07:20Z</time>
      </trkpt>
      <trkpt lat="44.3251" lon="4.63603">
        <ele>134</ele>
        <time>2013-06-23T15:07:27Z</time>
      </trkpt>
      <trkpt lat="44.32511" lon="4.63594">
        <ele>135</ele>
        <time>2013-06-23T15:07:32Z</time>
      </trkpt>
      <trkpt lat="44.32509" lon="4.63595">
        <ele>135</ele>
        <time>2013-06-23T15:07:39Z</time>
      </trkpt>
      <trkpt lat="44.32511" lon="4.63591">
        <ele>135</ele>
        <time>2013-06-23T15:07:44Z</time>
      </trkpt>
      <trkpt lat="44.32517" lon="4.63554">
        <ele>135</ele>
        <time>2013-06-23T15:07:54Z</time>
      </trkpt>
      <trkpt lat="44.32523" lon="4.63531">
        <ele>135</ele>
        <time>2013-06-23T15:08:00Z</time>
      </trkpt>
      <trkpt lat="44.32527" lon="4.63509">
        <ele>136</ele>
        <time>2013-06-23T15:08:09Z</time>
      </trkpt>
      <trkpt lat="44.32532" lon="4.63495">
        <ele>138</ele>
        <time>2013-06-23T15:08:16Z</time>
      </trkpt>
      <trkpt lat="44.32535" lon="4.63484">
        <ele>138</ele>
        <time>2013-06-23T15:08:21Z</time>
      </trkpt>
      <trkpt lat="44.32538" lon="4.63469">
        <ele>138</ele>
        <time>2013-06-23T15:08:27Z</time>
      </trkpt>
      <trkpt lat="44.3254" lon="4.63453">
        <ele>138</ele>
        <time>2013-06-23T15:08:33Z</time>
      </trkpt>
      <trkpt lat="44.32536" lon="4.6343">
        <ele>139</ele>
        <time>2013-06-23T15:08:41Z</time>
      </trkpt>
      <trkpt lat="44.32534" lon="4.63417">
        <ele>139</ele>
        <time>2013-06-23T15:08:46Z</time>
      </trkpt>
      <trkpt lat="44.32535" lon="4.63383">
        <ele>139</ele>
        <time>2013-06-23T15:08:58Z</time>
      </trkpt>
      <trkpt lat="44.32538" lon="4.63306">
        <ele>142</ele>
        <time>2013-06-23T15:09:23Z</time>
      </trkpt>
      <trkpt lat="44.32539" lon="4.63263">
        <ele>142</ele>
        <time>2013-06-23T15:09:38Z</time>
      </trkpt>
      <trkpt lat="44.32541" lon="4.6323">
        <ele>142</ele>
        <time>2013-06-23T15:09:49Z</time>
      </trkpt>
      <trkpt lat="44.32541" lon="4.6322">
        <ele>143</ele>
        <time>2013-06-23T15:09:54Z</time>
      </trkpt>
      <trkpt lat="44.32536" lon="4.63188">
        <ele>144</ele>
        <time>2013-06-23T15:10:06Z</time>
      </trkpt>
      <trkpt lat="44.32457" lon="4.62938">
        <ele>148</ele>
        <time>2013-06-23T15:11:08Z</time>
      </trkpt>
      <trkpt lat="44.32461" lon="4.62919">
        <ele>149</ele>
        <time>2013-06-23T15:11:13Z</time>
      </trkpt>
      <trkpt lat="44.32519" lon="4.62577">
        <ele>162</ele>
        <time>2013-06-23T15:12:49Z</time>
      </trkpt>
      <trkpt lat="44.32543" lon="4.62456">
        <ele>162</ele>
        <time>2013-06-23T15:13:21Z</time>
      </trkpt>
      <trkpt lat="44.32557" lon="4.62388">
        <ele>166</ele>
        <time>2013-06-23T15:13:44Z</time>
      </trkpt>
      <trkpt lat="44.3256" lon="4.62372">
        <ele>169</ele>
        <time>2013-06-23T15:13:50Z</time>
      </trkpt>
      <trkpt lat="44.32566" lon="4.62316">
        <ele>171</ele>
        <time>2013-06-23T15:14:07Z</time>
      </trkpt>
      <trkpt lat="44.3257" lon="4.62295">
        <ele>173</ele>
        <time>2013-06-23T15:14:14Z</time>
      </trkpt>
      <trkpt lat="44.32586" lon="4.62232">
        <ele>176</ele>
        <time>2013-06-23T15:14:33Z</time>
      </trkpt>
      <trkpt lat="44.32599" lon="4.62156">
        <ele>174</ele>
        <time>2013-06-23T15:14:56Z</time>
      </trkpt>
      <trkpt lat="44.32602" lon="4.6214">
        <ele>175</ele>
        <time>2013-06-23T15:15:02Z</time>
      </trkpt>
      <trkpt lat="44.32608" lon="4.62075">
        <ele>179</ele>
        <time>2013-06-23T15:15:26Z</time>
      </trkpt>
      <trkpt lat="44.32614" lon="4.62063">
        <ele>180</ele>
        <time>2013-06-23T15:15:32Z</time>
      </trkpt>
      <trkpt lat="44.32609" lon="4.6202">
        <ele>184</ele>
        <time>2013-06-23T15:15:49Z</time>
      </trkpt>
      <trkpt lat="44.32623" lon="4.61915">
        <ele>184</ele>
        <time>2013-06-23T15:16:20Z</time>
      </trkpt>
      <trkpt lat="44.32606" lon="4.61885">
        <ele>185</ele>
        <time>2013-06-23T15:16:27Z</time>
      </trkpt>
      <trkpt lat="44.32541" lon="4.61787">
        <ele>178</ele>
        <time>2013-06-23T15:16:42Z</time>
      </trkpt>
      <trkpt lat="44.32521" lon="4.6168">
        <ele>176</ele>
        <time>2013-06-23T15:16:55Z</time>
      </trkpt>
      <trkpt lat="44.32506" lon="4.61604">
        <ele>176</ele>
        <time>2013-06-23T15:17:13Z</time>
      </trkpt>
      <trkpt lat="44.32483" lon="4.61601">
        <ele>175</ele>
        <time>2013-06-23T15:17:20Z</time>
      </trkpt>
      <trkpt lat="44.32445" lon="4.61605">
        <ele>174</ele>
        <time>2013-06-23T15:17:26Z</time>
      </trkpt>
      <trkpt lat="44.32395" lon="4.61611">
        <ele>174</ele>
        <time>2013-06-23T15:17:33Z</time>
      </trkpt>
      <trkpt lat="44.3235" lon="4.61612">
        <ele>173</ele>
        <time>2013-06-23T15:17:39Z</time>
      </trkpt>
      <trkpt lat="44.32311" lon="4.61613">
        <ele>171</ele>
        <time>2013-06-23T15:17:44Z</time>
      </trkpt>
      <trkpt lat="44.32218" lon="4.61616">
        <ele>167</ele>
        <time>2013-06-23T15:17:54Z</time>
      </trkpt>
      <trkpt lat="44.31656" lon="4.61656">
        <ele>148</ele>
        <time>2013-06-23T15:18:51Z</time>
      </trkpt>
      <trkpt lat="44.31615" lon="4.61642">
        <ele>149</ele>
        <time>2013-06-23T15:18:56Z</time>
      </trkpt>
      <trkpt lat="44.31384" lon="4.61562">
        <ele>148</ele>
        <time>2013-06-23T15:19:27Z</time>
      </trkpt>
      <trkpt lat="44.31271" lon="4.61492">
        <ele>144</ele>
        <time>2013-06-23T15:19:45Z</time>
      </trkpt>
      <trkpt lat="44.30897" lon="4.61021">
        <ele>142</ele>
        <time>2013-06-23T15:21:24Z</time>
      </trkpt>
      <trkpt lat="44.30878" lon="4.61005">
        <ele>142</ele>
        <time>2013-06-23T15:21:29Z</time>
      </trkpt>
      <trkpt lat="44.3079" lon="4.60943">
        <ele>140</ele>
        <time>2013-06-23T15:21:50Z</time>
      </trkpt>
      <trkpt lat="44.30756" lon="4.60938">
        <ele>141</ele>
        <time>2013-06-23T15:21:58Z</time>
      </trkpt>
      <trkpt lat="44.30738" lon="4.60945">
        <ele>142</ele>
        <time>2013-06-23T15:22:03Z</time>
      </trkpt>
      <trkpt lat="44.30577" lon="4.61019">
        <ele>141</ele>
        <time>2013-06-23T15:22:38Z</time>
      </trkpt>
      <trkpt lat="44.3049" lon="4.6106">
        <ele>139</ele>
        <time>2013-06-23T15:23:02Z</time>
      </trkpt>
      <trkpt lat="44.30403" lon="4.61118">
        <ele>140</ele>
        <time>2013-06-23T15:23:26Z</time>
      </trkpt>
      <trkpt lat="44.30388" lon="4.61181">
        <ele>140</ele>
        <time>2013-06-23T15:23:39Z</time>
      </trkpt>
      <trkpt lat="44.30381" lon="4.61192">
        <ele>140</ele>
        <time>2013-06-23T15:23:44Z</time>
      </trkpt>
      <trkpt lat="44.30312" lon="4.61216">
        <ele>139</ele>
        <time>2013-06-23T15:23:56Z</time>
      </trkpt>
      <trkpt lat="44.30295" lon="4.6124">
        <ele>140</ele>
        <time>2013-06-23T15:24:02Z</time>
      </trkpt>
      <trkpt lat="44.30264" lon="4.61278">
        <ele>140</ele>
        <time>2013-06-23T15:24:15Z</time>
      </trkpt>
      <trkpt lat="44.3026" lon="4.61308">
        <ele>139</ele>
        <time>2013-06-23T15:24:21Z</time>
      </trkpt>
      <trkpt lat="44.30233" lon="4.6133">
        <ele>138</ele>
        <time>2013-06-23T15:24:27Z</time>
      </trkpt>
      <trkpt lat="44.30105" lon="4.61465">
        <ele>129</ele>
        <time>2013-06-23T15:24:46Z</time>
      </trkpt>
      <trkpt lat="44.3008" lon="4.61484">
        <ele>123</ele>
        <time>2013-06-23T15:24:52Z</time>
      </trkpt>
      <trkpt lat="44.30067" lon="4.61512">
        <ele>119</ele>
        <time>2013-06-23T15:25:02Z</time>
      </trkpt>
      <trkpt lat="44.30099" lon="4.61492">
        <ele>119</ele>
        <time>2013-06-23T15:25:17Z</time>
      </trkpt>
      <trkpt lat="44.30148" lon="4.61471">
        <ele>116</ele>
        <time>2013-06-23T15:25:40Z</time>
      </trkpt>
      <trkpt lat="44.30158" lon="4.61473">
        <ele>115</ele>
        <time>2013-06-23T15:25:45Z</time>
      </trkpt>
      <trkpt lat="44.30163" lon="4.61483">
        <ele>116</ele>
        <time>2013-06-23T15:25:51Z</time>
      </trkpt>
      <trkpt lat="44.30164" lon="4.6149">
        <ele>117</ele>
        <time>2013-06-23T15:25:56Z</time>
      </trkpt>
      <trkpt lat="44.30164" lon="4.61491">
        <ele>118</ele>
        <time>2013-06-23T15:26:02Z</time>
      </trkpt>
      <trkpt lat="44.30164" lon="4.61492">
        <ele>118</ele>
        <time>2013-06-23T15:26:09Z</time>
      </trkpt>
      <trkpt lat="44.30165" lon="4.61492">
        <ele>121</ele>
        <time>2013-06-23T15:26:15Z</time>
      </trkpt>
      <trkpt lat="44.30158" lon="4.61531">
        <ele>123</ele>
        <time>2013-06-23T15:26:27Z</time>
      </trkpt>
      <trkpt lat="44.30154" lon="4.61553">
        <ele>123</ele>
        <time>2013-06-23T15:26:32Z</time>
      </trkpt>
      <trkpt lat="44.30145" lon="4.61613">
        <ele>121</ele>
        <time>2013-06-23T15:26:47Z</time>
      </trkpt>
      <trkpt lat="44.30141" lon="4.6164">
        <ele>119</ele>
        <time>2013-06-23T15:26:55Z</time>
      </trkpt>
      <trkpt lat="44.3013" lon="4.61713">
        <ele>120</ele>
        <time>2013-06-23T15:27:21Z</time>
      </trkpt>
      <trkpt lat="44.30129" lon="4.61723">
        <ele>119</ele>
        <time>2013-06-23T15:27:26Z</time>
      </trkpt>
      <trkpt lat="44.30138" lon="4.61733">
        <ele>118</ele>
        <time>2013-06-23T15:27:33Z</time>
      </trkpt>
      <trkpt lat="44.30151" lon="4.61736">
        <ele>115</ele>
        <time>2013-06-23T15:27:49Z</time>
      </trkpt>
      <trkpt lat="44.30155" lon="4.61737">
        <ele>116</ele>
        <time>2013-06-23T15:27:56Z</time>
      </trkpt>
      <trkpt lat="44.30157" lon="4.61737">
        <ele>117</ele>
        <time>2013-06-23T15:28:02Z</time>
      </trkpt>
      <trkpt lat="44.30166" lon="4.6174">
        <ele>114</ele>
        <time>2013-06-23T15:28:14Z</time>
      </trkpt>
      <trkpt lat="44.30178" lon="4.61742">
        <ele>114</ele>
        <time>2013-06-23T15:28:28Z</time>
      </trkpt>
      <trkpt lat="44.30205" lon="4.6175">
        <ele>115</ele>
        <time>2013-06-23T15:28:55Z</time>
      </trkpt>
      <trkpt lat="44.3021" lon="4.61755">
        <ele>116</ele>
        <time>2013-06-23T15:29:03Z</time>
      </trkpt>
      <trkpt lat="44.30209" lon="4.61764">
        <ele>116</ele>
        <time>2013-06-23T15:29:09Z</time>
      </trkpt>
      <trkpt lat="44.30209" lon="4.61766">
        <ele>116</ele>
        <time>2013-06-23T15:29:14Z</time>
      </trkpt>
      <trkpt lat="44.30209" lon="4.61765">
        <ele>116</ele>
        <time>2013-06-23T15:29:20Z</time>
      </trkpt>
      <trkpt lat="44.30208" lon="4.61766">
        <ele>116</ele>
        <time>2013-06-23T15:29:27Z</time>
      </trkpt>
      <trkpt lat="44.30209" lon="4.61765">
        <ele>115</ele>
        <time>2013-06-23T15:29:32Z</time>
      </trkpt>
      <trkpt lat="44.30211" lon="4.61765">
        <ele>116</ele>
        <time>2013-06-23T15:29:38Z</time>
      </trkpt>
      <trkpt lat="44.30216" lon="4.61766">
        <ele>116</ele>
        <time>2013-06-23T15:29:45Z</time>
      </trkpt>
      <trkpt lat="44.30224" lon="4.6177">
        <ele>117</ele>
        <time>2013-06-23T15:29:50Z</time>
      </trkpt>
      <trkpt lat="44.3024" lon="4.61769">
        <ele>118</ele>
        <time>2013-06-23T15:29:58Z</time>
      </trkpt>
      <trkpt lat="44.30242" lon="4.6175">
        <ele>118</ele>
        <time>2013-06-23T15:30:06Z</time>
      </trkpt>
      <trkpt lat="44.30245" lon="4.61737">
        <ele>118</ele>
        <time>2013-06-23T15:30:11Z</time>
      </trkpt>
      <trkpt lat="44.30249" lon="4.61719">
        <ele>119</ele>
        <time>2013-06-23T15:30:18Z</time>
      </trkpt>
      <trkpt lat="44.3025" lon="4.61705">
        <ele>119</ele>
        <time>2013-06-23T15:30:23Z</time>
      </trkpt>
      <trkpt lat="44.30254" lon="4.61685">
        <ele>120</ele>
        <time>2013-06-23T15:30:29Z</time>
      </trkpt>
      <trkpt lat="44.30259" lon="4.61664">
        <ele>121</ele>
        <time>2013-06-23T15:30:37Z</time>
      </trkpt>
      <trkpt lat="44.30259" lon="4.61642">
        <ele>119</ele>
        <time>2013-06-23T15:30:44Z</time>
      </trkpt>
      <trkpt lat="44.30263" lon="4.61635">
        <ele>120</ele>
        <time>2013-06-23T15:30:51Z</time>
      </trkpt>
      <trkpt lat="44.30267" lon="4.61638">
        <ele>121</ele>
        <time>2013-06-23T15:30:57Z</time>
      </trkpt>
      <trkpt lat="44.30268" lon="4.61639">
        <ele>120</ele>
        <time>2013-06-23T15:31:04Z</time>
      </trkpt>
    </trkseg>
  </trk>
</gpx>